createdAt,value
2022-11-23T00:04:08.955Z,6.91
2022-11-23T00:09:11.349Z,6.93
2022-11-23T00:14:12.822Z,6.88
2022-11-23T00:19:14.283Z,6.85
2022-11-23T00:24:15.932Z,6.83
2022-11-23T00:29:17.434Z,6.75
2022-11-23T00:34:18.973Z,6.70
2022-11-23T00:39:20.538Z,6.77
2022-11-23T00:44:23.115Z,6.81
2022-11-23T00:49:24.628Z,6.89
2022-11-23T00:54:26.141Z,6.94
2022-11-23T00:59:29.701Z,7.01
2022-11-23T01:04:31.601Z,7.03
2022-11-23T01:09:33.291Z,7.03
2022-11-23T01:14:35.220Z,7.07
2022-11-23T01:19:36.683Z,7.11
2022-11-23T01:24:38.205Z,7.11
2022-11-23T01:29:39.661Z,7.11
2022-11-23T01:34:41.105Z,7.08
2022-11-23T01:39:42.606Z,7.02
2022-11-23T01:44:44.132Z,7.00
2022-11-23T01:49:51.778Z,6.91
2022-11-23T01:54:56.985Z,6.89
2022-11-23T01:59:58.601Z,6.84
2022-11-23T02:05:01.507Z,6.73
2022-11-23T02:10:03.338Z,6.69
2022-11-23T02:15:05.175Z,6.67
2022-11-23T02:20:12.554Z,6.65
2022-11-23T02:25:27.514Z,6.64
2022-11-23T02:30:31.431Z,6.64
2022-11-23T02:35:34.089Z,6.64
2022-11-23T02:40:36.842Z,6.63
2022-11-23T02:45:46.652Z,6.64
2022-11-23T02:50:48.118Z,6.69
2022-11-23T02:55:49.571Z,6.70
2022-11-23T03:00:51.157Z,6.69
2022-11-23T03:05:52.709Z,6.80
2022-11-23T03:10:54.231Z,6.82
2022-11-23T03:15:59.128Z,6.83
2022-11-23T03:21:05.786Z,6.84
2022-11-23T03:26:12.637Z,6.83
2022-11-23T03:31:14.703Z,6.83
2022-11-23T03:36:16.200Z,6.85
2022-11-23T03:41:17.659Z,6.90
2022-11-23T03:46:19.236Z,6.84
2022-11-23T03:51:20.838Z,6.83
2022-11-23T03:56:22.361Z,6.85
2022-11-23T04:01:23.921Z,6.86
2022-11-23T04:06:25.475Z,6.80
2022-11-23T04:11:26.989Z,6.80
2022-11-23T04:16:28.523Z,6.82
2022-11-23T04:21:29.981Z,6.83
2022-11-23T04:26:31.495Z,6.85
2022-11-23T04:31:33.019Z,6.75
2022-11-23T04:36:34.726Z,6.71
2022-11-23T04:41:36.191Z,6.68
2022-11-23T04:46:37.691Z,6.67
2022-11-23T04:51:39.209Z,6.71
2022-11-23T04:56:40.687Z,6.71
2022-11-23T05:01:42.168Z,6.74
2022-11-23T05:06:43.685Z,6.76
2022-11-23T05:11:45.209Z,6.74
2022-11-23T05:16:46.731Z,6.73
2022-11-23T05:21:48.197Z,6.74
2022-11-23T05:26:53.379Z,6.72
2022-11-23T05:31:57.614Z,6.78
2022-11-23T05:36:59.083Z,6.80
2022-11-23T05:42:00.673Z,6.84
2022-11-23T05:47:02.232Z,6.82
2022-11-23T05:52:03.906Z,6.80
2022-11-23T05:57:05.365Z,6.88
2022-11-23T06:02:06.928Z,6.92
2022-11-23T06:07:08.461Z,6.91
2022-11-23T06:12:10.005Z,7.00
2022-11-23T06:17:11.454Z,6.97
2022-11-23T06:22:13.506Z,6.90
2022-11-23T06:27:18.226Z,6.89
2022-11-23T06:32:20.678Z,6.87
2022-11-23T06:37:22.134Z,6.83
2022-11-23T06:42:38.395Z,6.84
2022-11-23T06:47:40.704Z,6.83
2022-11-23T06:52:42.215Z,6.79
2022-11-23T06:57:43.661Z,6.80
2022-11-23T07:02:52.191Z,6.67
2022-11-23T07:07:53.797Z,6.58
2022-11-23T07:12:55.346Z,6.61
2022-11-23T07:17:56.808Z,6.70
2022-11-23T07:23:07.881Z,6.83
2022-11-23T07:28:11.895Z,6.84
2022-11-23T07:33:13.378Z,6.73
2022-11-23T07:38:14.901Z,6.64
2022-11-23T07:43:16.460Z,6.59
2022-11-23T07:48:18.208Z,6.59
2022-11-23T07:53:20.038Z,6.64
2022-11-23T07:58:21.484Z,6.74
2022-11-23T08:03:30.712Z,6.82
2022-11-23T08:08:32.395Z,6.81
2022-11-23T08:13:37.323Z,6.81
2022-11-23T08:18:38.766Z,6.78
2022-11-23T08:23:40.316Z,6.85
2022-11-23T08:28:41.819Z,6.90
2022-11-23T08:33:44.493Z,6.98
2022-11-23T08:38:46.412Z,6.97
2022-11-23T08:43:48.494Z,6.87
2022-11-23T08:48:50.024Z,6.75
2022-11-23T08:53:51.738Z,6.55
2022-11-23T08:58:53.253Z,6.62
2022-11-23T09:03:54.955Z,6.66
2022-11-23T09:08:57.085Z,6.79
2022-11-23T09:13:58.826Z,6.80
2022-11-23T09:19:00.310Z,6.79
2022-11-23T09:24:02.240Z,6.92
2022-11-23T09:29:08.299Z,6.97
2022-11-23T09:34:13.261Z,7.02
2022-11-23T09:39:14.956Z,7.05
2022-11-23T09:44:24.431Z,7.07
2022-11-23T09:49:49.860Z,7.08
2022-11-23T09:54:56.843Z,7.19
2022-11-23T10:00:02.151Z,7.20
2022-11-23T10:05:04.728Z,7.20
2022-11-23T10:10:36.190Z,7.44
2022-11-23T10:16:12.263Z,7.73
2022-11-23T10:21:29.999Z,7.86
2022-11-23T10:26:38.364Z,7.91
2022-11-23T10:31:45.002Z,7.76
2022-11-23T10:36:46.519Z,7.64
2022-11-23T10:41:48.629Z,7.73
2022-11-23T10:46:50.177Z,7.88
2022-11-23T10:51:57.852Z,7.95
2022-11-23T10:57:00.161Z,8.04
2022-11-23T11:02:19.142Z,7.99
2022-11-23T11:07:24.397Z,8.01
2022-11-23T11:12:27.528Z,8.14
2022-11-23T11:17:34.585Z,8.17
2022-11-23T11:22:36.644Z,8.14
2022-11-23T11:27:38.181Z,8.12
2022-11-23T11:32:56.048Z,8.08
2022-11-23T11:38:05.398Z,7.99
2022-11-23T11:43:37.818Z,7.81
2022-11-23T11:48:53.140Z,7.76
2022-11-23T11:54:33.526Z,7.86
2022-11-23T11:59:45.064Z,7.85
2022-11-23T12:04:55.707Z,7.87
2022-11-23T12:10:11.883Z,7.95
2022-11-23T12:20:57.856Z,7.84
2022-11-23T12:26:27.132Z,7.71
2022-11-23T12:31:31.375Z,7.62
2022-11-23T12:36:45.871Z,7.49
2022-11-23T12:42:08.861Z,7.39
2022-11-23T12:47:22.292Z,7.40
2022-11-23T12:52:48.504Z,7.26
2022-11-23T12:58:05.096Z,7.23
2022-11-23T13:03:30.549Z,7.25
2022-11-23T13:09:03.075Z,7.21
2022-11-23T13:14:26.355Z,7.20
2022-11-23T13:19:55.995Z,7.14
2022-11-23T13:25:12.918Z,7.14
2022-11-23T13:36:10.464Z,7.13
2022-11-23T13:41:33.842Z,7.16
2022-11-23T13:46:36.619Z,7.32
2022-11-23T13:51:38.703Z,7.43
2022-11-23T13:56:43.131Z,7.35
2022-11-23T14:02:12.638Z,7.36
2022-11-23T14:07:25.391Z,7.37
2022-11-23T14:12:56.816Z,7.19
2022-11-23T14:18:35.074Z,7.00
2022-11-23T14:23:58.181Z,7.06
2022-11-23T14:29:11.888Z,7.07
2022-11-23T14:34:31.760Z,7.06
2022-11-23T14:40:20.172Z,6.96
2022-11-23T14:45:26.959Z,6.94
2022-11-23T14:50:29.604Z,6.80
2022-11-23T14:55:31.272Z,6.65
2022-11-23T15:00:37.026Z,6.55
2022-11-23T15:05:39.820Z,6.41
2022-11-23T15:11:09.835Z,6.36
2022-11-23T15:16:13.319Z,6.30
2022-11-23T15:21:28.393Z,6.40
2022-11-23T15:32:14.373Z,6.79
2022-11-23T15:37:14.417Z,6.75
2022-11-23T15:42:18.584Z,6.68
2022-11-23T15:47:27.651Z,6.64
2022-11-23T15:52:35.758Z,6.32
2022-11-23T15:57:37.903Z,6.28
2022-11-23T16:02:39.701Z,6.30
2022-11-23T16:08:02.169Z,6.38
2022-11-23T16:13:06.465Z,6.47
2022-11-23T16:18:13.922Z,6.45
2022-11-23T16:23:20.595Z,6.31
2022-11-23T16:28:29.394Z,6.33
2022-11-23T16:33:30.944Z,6.36
2022-11-23T16:38:32.389Z,6.48
2022-11-23T16:43:33.900Z,6.65
2022-11-23T16:48:45.989Z,6.66
2022-11-23T16:54:12.348Z,6.63
2022-11-23T16:59:16.598Z,6.54
2022-11-23T17:04:18.167Z,6.58
2022-11-23T17:09:19.776Z,6.68
2022-11-23T17:14:28.066Z,6.70
2022-11-23T17:19:31.461Z,6.80
2022-11-23T17:24:33.510Z,6.77
2022-11-23T17:29:40.394Z,6.66
2022-11-23T17:34:43.329Z,6.75
2022-11-23T17:39:45.025Z,6.88
2022-11-23T17:44:46.626Z,7.11
2022-11-23T17:49:48.144Z,7.25
2022-11-23T17:54:50.135Z,7.23
2022-11-23T17:59:52.260Z,7.05
2022-11-23T18:04:53.887Z,6.97
2022-11-23T18:09:56.149Z,6.94
2022-11-23T18:14:57.767Z,7.00
2022-11-23T18:19:59.305Z,7.01
2022-11-23T18:25:00.814Z,6.95
2022-11-23T18:30:02.374Z,6.84
2022-11-23T18:35:05.094Z,6.76
2022-11-23T18:40:07.011Z,6.66
2022-11-23T18:45:08.782Z,6.78
2022-11-23T18:50:10.319Z,6.91
2022-11-23T18:55:12.035Z,6.96
2022-11-23T19:00:15.863Z,6.94
2022-11-23T19:05:17.529Z,6.92
2022-11-23T19:10:19.734Z,6.92
2022-11-23T19:15:21.304Z,6.85
2022-11-23T19:20:23.701Z,6.85
2022-11-23T19:25:25.197Z,6.82
2022-11-23T19:30:27.346Z,6.77
2022-11-23T19:35:28.840Z,6.78
2022-11-23T19:40:30.311Z,6.72
2022-11-23T19:45:31.766Z,6.68
2022-11-23T19:50:33.236Z,6.69
2022-11-23T19:55:34.695Z,6.59
2022-11-23T20:00:37.053Z,6.53
2022-11-23T20:05:38.753Z,6.53
2022-11-23T20:10:40.253Z,6.54
2022-11-23T20:15:43.865Z,6.52
2022-11-23T20:20:47.580Z,6.49
2022-11-23T20:25:49.149Z,6.48
2022-11-23T20:30:51.025Z,6.47
2022-11-23T20:35:52.669Z,6.44
2022-11-23T20:40:54.182Z,6.46
2022-11-23T20:45:58.361Z,6.41
2022-11-23T20:50:59.900Z,6.44
2022-11-23T20:56:10.631Z,6.43
2022-11-23T21:01:14.844Z,6.44
2022-11-23T21:06:16.594Z,6.42
2022-11-23T21:11:36.586Z,6.48
2022-11-23T21:16:58.948Z,6.58
2022-11-23T21:22:09.218Z,6.64
2022-11-23T21:27:13.301Z,6.70
2022-11-23T21:32:14.838Z,6.72
2022-11-23T21:37:16.457Z,6.79
2022-11-23T21:42:17.993Z,6.81
2022-11-23T21:47:19.632Z,6.80
2022-11-23T21:52:21.151Z,6.81
2022-11-23T21:57:22.664Z,6.78
2022-11-23T22:02:24.233Z,6.71
2022-11-23T22:07:25.798Z,6.68
2022-11-23T22:12:27.405Z,6.62
2022-11-23T22:17:28.894Z,6.59
2022-11-23T22:22:30.423Z,6.69
2022-11-23T22:27:32.035Z,6.74
2022-11-23T22:32:33.540Z,6.74
2022-11-23T22:37:35.035Z,6.70
2022-11-23T22:42:36.536Z,6.68
2022-11-23T22:47:38.213Z,6.66
2022-11-23T22:52:39.702Z,6.65
2022-11-23T22:57:41.186Z,6.64
2022-11-23T23:02:42.769Z,6.65
2022-11-23T23:07:44.449Z,6.64
2022-11-23T23:12:46.021Z,6.62
2022-11-23T23:17:47.737Z,6.65
2022-11-23T23:22:49.282Z,6.62
2022-11-23T23:27:50.793Z,6.62
2022-11-23T23:32:54.416Z,6.61
2022-11-23T23:37:55.908Z,6.62
2022-11-23T23:43:00.468Z,6.74
2022-11-23T23:48:01.967Z,6.84
2022-11-23T23:53:03.472Z,6.94
2022-11-23T23:58:04.962Z,7.04
